Time;durP1;ratioP1;P1;durP2;ratioP2;P2;SDS_P1;SDS_P2;PMS_P1;PMS_P2;Temp;Humidity;BMP_temperature;BMP_pressure;BME280_temperature;BME280_humidity;BME280_pressure;Samples;Min_cycle;Max_cycle;Signal;HPM_P1;HPM_P2
2021/08/07 00:02:23;;;;;;;8.85;5.58;;;;;;;10.60;92.01;97319.30;1728019;83;20918;-76
2021/08/07 00:04:49;;;;;;;7.97;5.97;;;;;;;10.55;92.25;97315.30;1728357;83;21535;-73
2021/08/07 00:07:15;;;;;;;11.35;7.67;;;;;;;10.52;92.10;97319.16;1728080;83;20886;-79
2021/08/07 00:09:41;;;;;;;12.10;5.87;;;;;;;10.50;93.31;97310.51;1728286;82;20836;-79
2021/08/07 00:12:07;;;;;;;12.35;6.55;;;;;;;10.54;93.73;97314.25;1728065;82;21201;-79
2021/08/07 00:14:33;;;;;;;10.95;5.62;;;;;;;10.56;93.67;97305.27;1728236;83;20911;-79
2021/08/07 00:16:59;;;;;;;10.05;5.75;;;;;;;10.55;93.40;97311.80;1728009;83;21030;-79
2021/08/07 00:19:24;;;;;;;9.65;6.22;;;;;;;10.55;93.50;97313.95;1728298;83;20926;-73
2021/08/07 00:21:50;;;;;;;11.25;5.87;;;;;;;10.51;93.68;97314.30;1728260;83;21624;-73
2021/08/07 00:24:16;;;;;;;12.50;6.50;;;;;;;10.52;94.13;97310.48;1728208;83;21255;-73
2021/08/07 00:26:42;;;;;;;7.87;4.87;;;;;;;10.57;93.85;97315.80;1728354;83;20843;-73
2021/08/07 00:29:08;;;;;;;6.72;4.65;;;;;;;10.63;94.06;97317.34;1728156;83;20981;-73
2021/08/07 00:31:34;;;;;;;7.58;4.87;;;;;;;10.65;93.88;97323.25;1728332;83;20812;-73
2021/08/07 00:34:00;;;;;;;9.50;5.50;;;;;;;10.65;93.31;97324.61;1728404;83;20879;-79
2021/08/07 00:36:26;;;;;;;8.90;6.17;;;;;;;10.70;93.19;97318.31;1728394;83;21942;-73
2021/08/07 00:38:52;;;;;;;10.18;5.65;;;;;;;10.71;93.09;97322.62;1728160;83;20946;-73
2021/08/07 00:41:18;;;;;;;11.65;4.97;;;;;;;10.74;93.25;97324.73;1728433;82;20879;-73
2021/08/07 00:43:44;;;;;;;11.05;5.55;;;;;;;10.72;92.55;97317.46;1728228;82;21469;-73
2021/08/07 00:46:10;;;;;;;11.70;6.00;;;;;;;10.69;92.29;97322.93;1728413;83;20868;-73
2021/08/07 00:48:36;;;;;;;11.22;5.67;;;;;;;10.69;92.23;97318.06;1728165;83;20908;-73
2021/08/07 00:51:02;;;;;;;11.68;5.37;;;;;;;10.67;91.86;97331.08;1728284;82;20955;-73
2021/08/07 00:53:28;;;;;;;12.18;5.70;;;;;;;10.62;91.50;97329.28;1662386;83;20910;-73
2021/08/07 00:55:53;;;;;;;11.75;6.47;;;;;;;10.54;91.61;97329.95;1728276;83;20811;-73
2021/08/07 00:58:19;;;;;;;9.98;5.30;;;;;;;10.50;92.12;97326.20;1728498;83;20868;-73
2021/08/07 01:00:45;;;;;;;9.88;5.35;;;;;;;10.47;92.15;97332.78;1728215;82;21144;-73
2021/08/07 01:03:17;;;;;;;7.65;6.00;;;;;;;10.41;91.93;97328.78;1728326;82;21537;-79
2021/08/07 01:06:00;;;;;;;8.63;5.33;;;;;;;10.36;92.37;97341.07;1725528;82;20971;-80
2021/08/07 01:08:26;;;;;;;11.90;5.08;;;;;;;10.37;92.08;97331.04;1727449;82;21349;-74
2021/08/07 01:11:14;;;;;;;13.08;5.08;;;;;;;10.37;91.63;97326.98;1730062;82;20997;-73
2021/08/07 01:13:48;;;;;;;11.30;5.53;;;;;;;10.38;91.81;97324.52;1736503;82;21157;-73
2021/08/07 01:16:25;;;;;;;9.20;5.80;;;;;;;10.39;91.88;97322.06;1736402;82;20924;-79
2021/08/07 01:18:51;;;;;;;9.68;5.05;;;;;;;10.38;91.86;97323.16;1735592;82;20982;-72
2021/08/07 01:21:20;;;;;;;11.38;5.47;;;;;;;10.41;91.86;97319.86;1740016;82;20850;-79
2021/08/07 01:23:52;;;;;;;7.95;5.58;;;;;;;10.38;91.95;97317.20;1736559;82;20962;-79
2021/08/07 01:26:32;;;;;;;10.88;5.33;;;;;;;10.39;92.16;97325.58;1733137;82;21107;-78
2021/08/07 01:28:58;;;;;;;10.53;6.15;;;;;;;10.45;92.31;97331.17;1731235;82;21427;-73
2021/08/07 01:31:25;;;;;;;11.60;5.58;;;;;;;10.41;91.98;97332.84;1715476;82;20934;-79
2021/08/07 01:33:51;;;;;;;9.10;5.67;;;;;;;10.42;91.74;97339.90;1736263;81;20971;-76
2021/08/07 01:36:16;;;;;;;7.97;4.87;;;;;;;10.41;91.84;97337.46;1736515;82;20922;-73
2021/08/07 01:38:54;;;;;;;7.62;4.65;;;;;;;10.37;92.54;97334.55;1736353;82;22046;-73
2021/08/07 01:41:21;;;;;;;7.75;4.08;;;;;;;10.34;92.74;97341.09;1736231;82;20939;-80
2021/08/07 01:43:47;;;;;;;8.93;4.00;;;;;;;10.33;92.74;97339.48;1736241;82;21392;-80
2021/08/07 01:46:15;;;;;;;6.42;4.30;;;;;;;10.32;93.00;97341.39;1736382;82;21494;-79
2021/08/07 01:48:59;;;;;;;8.98;4.58;;;;;;;10.33;92.73;97342.99;1715984;82;20987;-73
2021/08/07 01:51:30;;;;;;;11.73;5.65;;;;;;;10.33;92.49;97348.41;1734836;82;21316;-80
2021/08/07 01:53:57;;;;;;;6.58;4.55;;;;;;;10.29;92.60;97343.34;1735272;82;20946;-80
2021/08/07 01:56:31;;;;;;;8.33;4.83;;;;;;;10.27;92.86;97350.95;1736324;82;20942;-74
2021/08/07 01:59:01;;;;;;;6.97;4.37;;;;;;;10.28;92.66;97349.86;1736241;82;21056;-78
2021/08/07 02:01:27;;;;;;;11.85;4.30;;;;;;;10.32;92.17;97351.41;1736280;82;21339;-73
2021/08/07 02:03:54;;;;;;;8.35;3.52;;;;;;;10.30;91.91;97351.72;1736292;82;21309;-80
2021/08/07 02:06:22;;;;;;;7.92;4.85;;;;;;;10.29;92.44;97351.46;1736307;82;21580;-80
2021/08/07 02:08:48;;;;;;;7.00;3.75;;;;;;;10.32;93.14;97355.48;1735650;82;21304;-73
2021/08/07 02:11:15;;;;;;;7.05;4.35;;;;;;;10.34;91.77;97355.98;1734623;82;20982;-73
2021/08/07 02:13:41;;;;;;;12.23;5.20;;;;;;;10.30;92.10;97354.97;1728177;83;20999;-79
2021/08/07 02:16:07;;;;;;;7.85;4.95;;;;;;;10.29;91.96;97353.37;1728374;83;22010;-73
2021/08/07 02:18:33;;;;;;;8.15;4.45;;;;;;;10.24;92.05;97354.78;1728257;83;20859;-79
2021/08/07 02:20:59;;;;;;;6.33;4.75;;;;;;;10.16;92.06;97353.51;1728230;82;21455;-80
2021/08/07 02:23:26;;;;;;;9.95;5.12;;;;;;;10.10;92.51;97354.70;1728035;83;20915;-74
2021/08/07 02:25:56;;;;;;;12.68;5.80;;;;;;;10.03;92.64;97356.95;1728388;83;21010;-79
2021/08/07 02:28:22;;;;;;;8.78;3.60;;;;;;;10.00;93.15;97361.06;1731666;82;20980;-80
2021/08/07 02:30:48;;;;;;;6.12;3.67;;;;;;;10.00;92.67;97353.46;1728111;83;20946;-73
2021/08/07 02:33:15;;;;;;;6.70;3.90;;;;;;;9.96;92.60;97361.92;1728131;83;20887;-73
2021/08/07 02:35:41;;;;;;;9.35;4.53;;;;;;;9.97;92.61;97358.92;1728303;83;20999;-80
2021/08/07 02:38:07;;;;;;;8.00;4.37;;;;;;;9.98;92.14;97361.88;1707331;83;20897;-73
2021/08/07 02:40:33;;;;;;;5.72;4.10;;;;;;;9.99;92.74;97359.98;1728293;83;22476;-74
2021/08/07 02:42:59;;;;;;;9.10;4.10;;;;;;;10.01;91.98;97353.75;1707621;83;20866;-79
2021/08/07 02:45:25;;;;;;;7.08;5.25;;;;;;;9.96;92.50;97357.86;1728180;83;20895;-79
2021/08/07 02:47:51;;;;;;;9.63;5.45;;;;;;;9.93;92.29;97348.44;1728101;83;20943;-73
2021/08/07 02:50:17;;;;;;;7.80;5.20;;;;;;;9.93;92.29;97348.44;1732164;82;20919;-80
2021/08/07 02:52:43;;;;;;;7.92;5.22;;;;;;;9.96;92.07;97360.02;1728045;83;21147;-79
2021/08/07 02:55:09;;;;;;;11.93;5.95;;;;;;;9.95;91.96;97363.83;1728459;83;20839;-74
2021/08/07 02:57:35;;;;;;;9.15;4.95;;;;;;;9.97;92.22;97362.17;1728189;83;20907;-79
2021/08/07 03:00:01;;;;;;;6.58;4.20;;;;;;;9.94;92.28;97359.52;1728142;83;21007;-75
2021/08/07 03:02:27;;;;;;;8.98;5.35;;;;;;;9.89;91.87;97360.92;1728010;83;20903;-79
2021/08/07 03:04:53;;;;;;;9.00;4.17;;;;;;;9.82;92.45;97366.69;1728323;82;21230;-79
2021/08/07 03:07:19;;;;;;;6.12;3.98;;;;;;;9.85;93.55;97374.24;1728241;83;21508;-79
2021/08/07 03:09:45;;;;;;;6.92;3.75;;;;;;;9.89;93.37;97369.84;1728411;82;20978;-73
2021/08/07 03:12:11;;;;;;;7.72;4.20;;;;;;;9.85;92.97;97363.42;1729383;82;21007;-73
2021/08/07 03:14:37;;;;;;;10.53;4.08;;;;;;;9.84;92.25;97366.42;1731024;82;21423;-79
2021/08/07 03:17:04;;;;;;;7.20;3.98;;;;;;;9.77;91.97;97360.00;1731043;82;21205;-80
2021/08/07 03:19:31;;;;;;;5.90;3.83;;;;;;;9.76;92.72;97357.05;1744716;82;21009;-79
2021/08/07 03:21:57;;;;;;;14.15;3.95;;;;;;;9.78;92.60;97366.22;1746567;81;21053;-80
2021/08/07 03:24:23;;;;;;;8.25;4.10;;;;;;;9.80;92.22;97367.53;1741978;81;20966;-80
2021/08/07 03:26:49;;;;;;;6.12;3.87;;;;;;;9.79;94.39;97369.17;1736561;81;20925;-79
2021/08/07 03:29:15;;;;;;;9.20;3.83;;;;;;;9.83;93.46;97372.37;1736117;82;21303;-74
2021/08/07 03:31:41;;;;;;;6.15;3.25;;;;;;;9.90;93.86;97376.06;1736245;81;20902;-74
2021/08/07 03:34:07;;;;;;;9.63;4.12;;;;;;;9.95;92.76;97379.27;1736143;82;20952;-74
2021/08/07 03:36:33;;;;;;;5.35;3.45;;;;;;;9.94;92.59;97377.11;1736319;82;20902;-73
2021/08/07 03:38:59;;;;;;;6.03;4.67;;;;;;;9.89;92.90;97371.75;1736165;82;20871;-79
2021/08/07 03:41:25;;;;;;;7.60;3.95;;;;;;;9.89;94.27;97368.48;1736219;82;21266;-79
2021/08/07 03:43:51;;;;;;;9.55;5.10;;;;;;;9.95;92.56;97371.14;1736099;82;20858;-79
2021/08/07 03:46:17;;;;;;;8.23;4.70;;;;;;;9.90;92.25;97367.39;1736515;81;20926;-73
2021/08/07 03:48:43;;;;;;;8.03;5.12;;;;;;;9.90;92.98;97379.56;1736064;81;20910;-73
2021/08/07 03:51:09;;;;;;;8.33;5.08;;;;;;;9.90;93.36;97374.16;1736481;82;21557;-73
2021/08/07 03:53:35;;;;;;;7.72;5.08;;;;;;;9.97;92.72;97382.47;1736151;82;21285;-74
2021/08/07 03:56:01;;;;;;;8.80;3.77;;;;;;;10.03;92.79;97379.41;1736360;82;20973;-74
2021/08/07 03:58:27;;;;;;;9.50;4.85;;;;;;;10.07;92.83;97373.66;1736260;82;20919;-74
2021/08/07 04:00:53;;;;;;;8.55;4.78;;;;;;;10.14;92.69;97372.75;1736607;82;20855;-73
2021/08/07 04:03:19;;;;;;;10.25;5.45;;;;;;;10.23;92.20;97375.64;1736328;82;20958;-73
2021/08/07 04:05:44;;;;;;;10.10;4.85;;;;;;;10.26;92.50;97383.20;1736550;82;21329;-73
2021/08/07 04:08:10;;;;;;;10.98;4.92;;;;;;;10.29;92.42;97377.19;1736442;81;20930;-74
2021/08/07 04:10:37;;;;;;;8.43;4.87;;;;;;;10.38;91.88;97382.20;1736645;82;20863;-73
2021/08/07 04:13:04;;;;;;;10.20;5.28;;;;;;;10.37;91.62;97383.30;1736180;82;20935;-80
2021/08/07 04:15:30;;;;;;;8.38;5.00;;;;;;;10.41;91.66;97381.59;1733442;82;21387;-73
2021/08/07 04:17:56;;;;;;;12.28;5.03;;;;;;;10.42;91.92;97381.88;1728340;83;20887;-79
2021/08/07 04:20:22;;;;;;;7.50;4.55;;;;;;;10.41;92.32;97382.95;1728378;83;21010;-74
2021/08/07 04:22:48;;;;;;;7.40;4.97;;;;;;;10.47;91.91;97385.05;1728254;82;21349;-79
2021/08/07 04:25:14;;;;;;;7.17;4.53;;;;;;;10.58;91.28;97384.33;1728447;83;20934;-79
2021/08/07 04:27:40;;;;;;;7.15;3.72;;;;;;;10.68;91.33;97390.42;1728310;83;20844;-74
2021/08/07 04:30:07;;;;;;;9.48;3.98;;;;;;;10.72;91.06;97388.72;1707621;83;21121;-79
2021/08/07 04:32:33;;;;;;;10.98;4.42;;;;;;;10.85;91.13;97396.66;1707472;83;20959;-74
2021/08/07 04:34:59;;;;;;;5.67;4.08;;;;;;;10.96;91.01;97394.02;1728492;83;20978;-74
2021/08/07 04:37:25;;;;;;;10.50;4.62;;;;;;;11.12;91.07;97394.56;1728475;83;20836;-79
2021/08/07 04:39:51;;;;;;;7.72;4.78;;;;;;;11.19;90.69;97396.86;1728465;82;20863;-73
2021/08/07 04:42:17;;;;;;;8.80;5.10;;;;;;;11.26;91.16;97395.92;1728334;82;21921;-74
2021/08/07 04:44:43;;;;;;;6.67;4.58;;;;;;;11.42;90.88;97392.39;1728482;82;20959;-78
2021/08/07 04:47:09;;;;;;;6.58;4.90;;;;;;;11.54;90.45;97399.50;1728377;82;21013;-75
2021/08/07 04:49:35;;;;;;;6.05;4.50;;;;;;;11.62;90.37;97395.25;1728363;83;20832;-79
2021/08/07 04:52:01;;;;;;;10.30;7.10;;;;;;;11.71;90.39;97390.20;1728486;83;20950;-79
2021/08/07 04:54:28;;;;;;;10.25;5.10;;;;;;;11.81;90.23;97394.09;1728469;83;21145;-74
2021/08/07 04:56:53;;;;;;;7.10;4.55;;;;;;;11.94;89.74;97395.73;1728382;82;21032;-76
2021/08/07 04:59:19;;;;;;;6.03;4.33;;;;;;;12.07;89.45;97403.88;1728319;83;20847;-75
2021/08/07 05:01:46;;;;;;;12.68;5.42;;;;;;;12.25;89.56;97404.85;1728097;83;21018;-75
2021/08/07 05:04:12;;;;;;;8.78;5.12;;;;;;;12.38;89.01;97406.72;1728112;82;20868;-79
2021/08/07 05:06:39;;;;;;;12.80;4.45;;;;;;;12.37;89.03;97407.03;1728387;83;21273;-78
2021/08/07 05:09:06;;;;;;;6.35;5.08;;;;;;;12.48;88.86;97408.98;1728057;82;20911;-75
2021/08/07 05:11:32;;;;;;;10.85;5.10;;;;;;;12.51;89.14;97407.00;1728462;83;20963;-76
2021/08/07 05:13:58;;;;;;;8.98;4.53;;;;;;;12.70;89.29;97410.34;1710819;82;20871;-79
2021/08/07 05:16:23;;;;;;;9.60;4.45;;;;;;;12.87;89.46;97405.04;1736304;82;20827;-75
2021/08/07 05:18:49;;;;;;;13.38;4.83;;;;;;;13.04;89.14;97409.00;1736290;81;21199;-79
2021/08/07 05:21:15;;;;;;;4.75;3.98;;;;;;;13.27;89.45;97418.78;1736496;82;20870;-76
2021/08/07 05:23:41;;;;;;;6.67;4.80;;;;;;;13.47;89.19;97406.55;1736145;81;20882;-79
2021/08/07 05:26:07;;;;;;;10.38;4.90;;;;;;;13.71;88.98;97413.78;1736569;81;20839;-75
2021/08/07 05:28:34;;;;;;;6.67;5.10;;;;;;;13.89;88.58;97411.92;1736256;82;20954;-75
2021/08/07 05:31:00;;;;;;;22.37;6.22;;;;;;;14.07;87.10;97412.21;1736436;82;21242;-78
2021/08/07 05:33:26;;;;;;;8.70;4.87;;;;;;;14.07;87.10;97408.13;1736164;82;21611;-80
2021/08/07 05:35:52;;;;;;;11.25;5.33;;;;;;;14.14;86.72;97410.39;1736578;82;20913;-79
2021/08/07 05:38:18;;;;;;;7.75;5.60;;;;;;;14.30;86.15;97410.75;1736265;82;20886;-78
2021/08/07 05:40:44;;;;;;;6.58;3.98;;;;;;;14.34;86.67;97411.70;1736590;82;20911;-79
2021/08/07 05:43:10;;;;;;;8.78;3.77;;;;;;;14.51;86.53;97406.30;1736293;82;21833;-75
2021/08/07 05:45:36;;;;;;;10.93;4.65;;;;;;;14.71;86.82;97408.17;1736373;81;20914;-79
2021/08/07 05:48:03;;;;;;;6.72;4.42;;;;;;;14.87;86.19;97403.84;1736196;82;20967;-79
2021/08/07 05:50:29;;;;;;;6.85;3.87;;;;;;;15.10;86.55;97411.25;1736475;82;20994;-79
2021/08/07 05:52:55;;;;;;;6.37;3.75;;;;;;;15.28;85.98;97404.63;1736407;82;20899;-79
2021/08/07 05:55:21;;;;;;;7.12;4.90;;;;;;;15.46;85.75;97406.18;1736452;82;21165;-79
2021/08/07 05:57:47;;;;;;;13.93;4.62;;;;;;;15.63;85.24;97401.82;1736339;82;20915;-75
2021/08/07 06:00:14;;;;;;;14.35;4.42;;;;;;;15.65;84.53;97403.13;1736444;82;20839;-75
2021/08/07 06:02:40;;;;;;;6.22;4.67;;;;;;;15.76;84.50;97402.98;1736444;82;20935;-79
2021/08/07 06:05:07;;;;;;;5.08;4.05;;;;;;;16.01;85.07;97401.26;1736461;82;20891;-78
2021/08/07 06:07:33;;;;;;;9.18;4.03;;;;;;;16.22;84.57;97397.75;1736345;82;20989;-79
2021/08/07 06:09:59;;;;;;;6.78;4.05;;;;;;;16.43;84.57;97399.16;1736473;82;20850;-79
2021/08/07 06:12:25;;;;;;;15.83;5.60;;;;;;;16.61;84.03;97396.53;1734717;82;20839;-75
2021/08/07 06:14:51;;;;;;;5.72;4.00;;;;;;;16.75;83.29;97397.64;1728094;82;21443;-75
2021/08/07 06:17:17;;;;;;;15.98;5.28;;;;;;;16.87;82.75;97397.14;1728041;82;22515;-75
2021/08/07 06:19:53;;;;;;;5.65;4.33;;;;;;;17.12;82.18;97406.25;1728259;83;22016;-75
2021/08/07 06:22:17;;;;;;;17.20;12.07;;;;;;;17.22;82.37;97409.70;1727456;82;20990;-79
2021/08/07 06:24:43;;;;;;;9.98;5.35;;;;;;;17.41;82.49;97410.77;1728019;83;20926;-75
2021/08/07 06:27:09;;;;;;;9.35;3.95;;;;;;;17.61;81.83;97409.70;1728452;83;20982;-79
2021/08/07 06:29:35;;;;;;;7.72;4.87;;;;;;;17.81;82.01;97408.83;1728245;82;20843;-75
2021/08/07 06:32:01;;;;;;;9.90;4.50;;;;;;;17.97;81.28;97403.47;1728343;82;22021;-78
2021/08/07 06:34:27;;;;;;;6.72;4.60;;;;;;;18.08;80.53;97402.44;1727951;82;20978;-78
2021/08/07 06:36:53;;;;;;;8.63;5.15;;;;;;;18.22;80.31;97409.17;1728416;83;20966;-79
2021/08/07 06:39:19;;;;;;;6.10;2.60;;;;;;;18.46;80.51;97399.33;1728134;83;20851;-75
2021/08/07 06:41:45;;;;;;;4.70;2.05;;;;;;;18.78;79.08;97399.70;1728336;83;20882;-75
2021/08/07 06:44:11;;;;;;;4.30;2.35;;;;;;;19.05;78.31;97400.86;1728089;83;20977;-74
2021/08/07 06:46:37;;;;;;;4.67;2.42;;;;;;;19.34;77.88;97405.20;1728285;83;20863;-75
2021/08/07 06:49:03;;;;;;;2.92;2.05;;;;;;;19.61;77.23;97410.45;1728172;83;20938;-75
2021/08/07 06:51:28;;;;;;;3.02;2.15;;;;;;;19.84;77.14;97413.97;1728412;83;21473;-76
2021/08/07 06:53:54;;;;;;;5.37;3.72;;;;;;;20.06;76.26;97409.20;1728166;82;20906;-79
2021/08/07 06:56:20;;;;;;;2.75;2.00;;;;;;;20.26;74.58;97411.46;1728166;83;21349;-79
2021/08/07 06:58:46;;;;;;;6.20;2.52;;;;;;;20.48;74.90;97408.63;1728131;83;20903;-79
2021/08/07 07:01:12;;;;;;;3.17;1.95;;;;;;;20.94;73.79;97412.98;1728313;83;20922;-79
2021/08/07 07:03:38;;;;;;;5.92;2.00;;;;;;;21.31;72.92;97414.14;1728145;83;21493;-79
2021/08/07 07:06:05;;;;;;;2.60;1.65;;;;;;;21.51;71.63;97419.03;1728251;83;20808;-75
2021/08/07 07:08:31;;;;;;;2.20;1.85;;;;;;;21.60;70.46;97411.91;1728177;82;21375;-79
2021/08/07 07:10:57;;;;;;;3.60;2.47;;;;;;;21.68;70.64;97413.05;1728288;83;20851;-78
2021/08/07 07:13:23;;;;;;;6.37;3.08;;;;;;;22.05;67.52;97414.44;1736826;82;20889;-75
2021/08/07 07:15:49;;;;;;;4.30;2.80;;;;;;;21.93;66.97;97420.95;1745596;82;20867;-80
2021/08/07 07:18:14;;;;;;;5.28;2.02;;;;;;;22.02;66.39;97421.50;1736227;82;20859;-80
2021/08/07 07:20:40;;;;;;;2.77;2.33;;;;;;;22.08;64.87;97419.27;1736428;82;21151;-80
2021/08/07 07:23:06;;;;;;;7.85;5.50;;;;;;;22.66;64.75;97410.68;1736197;82;20850;-76
2021/08/07 07:25:32;;;;;;;9.35;7.62;;;;;;;23.23;65.18;97406.67;1736395;82;20890;-76
2021/08/07 07:27:58;;;;;;;4.15;3.10;;;;;;;23.84;64.33;97412.30;1736209;82;20866;-80
2021/08/07 07:30:24;;;;;;;1.98;1.72;;;;;;;24.47;62.71;97406.28;1736510;81;21521;-80
2021/08/07 07:32:50;;;;;;;3.65;1.50;;;;;;;24.98;61.37;97412.30;1736240;82;21031;-76
2021/08/07 07:35:16;;;;;;;5.05;2.02;;;;;;;25.27;59.19;97418.77;1736319;81;20819;-76
2021/08/07 07:37:43;;;;;;;4.47;1.70;;;;;;;25.63;57.92;97420.25;1736332;82;21009;-80
2021/08/07 07:40:11;;;;;;;4.28;3.67;;;;;;;25.98;55.05;97417.58;1736436;81;21006;-76
2021/08/07 07:42:37;;;;;;;5.08;1.60;;;;;;;26.08;53.69;97414.60;1736478;82;21343;-76
2021/08/07 07:45:06;;;;;;;6.92;1.77;;;;;;;26.31;52.59;97422.51;1736184;82;20989;-80
2021/08/07 07:47:32;;;;;;;2.65;1.65;;;;;;;26.64;51.67;97424.87;1736159;82;21403;-80
2021/08/07 07:49:57;;;;;;;6.78;4.33;;;;;;;26.70;47.27;97428.05;1736210;81;20886;-77
2021/08/07 07:52:23;;;;;;;2.92;1.85;;;;;;;26.62;49.81;97428.66;1736778;82;20858;-76
2021/08/07 07:54:49;;;;;;;2.60;1.52;;;;;;;26.95;49.48;97419.65;1736187;82;20875;-82
2021/08/07 07:57:15;;;;;;;3.02;1.57;;;;;;;27.41;47.90;97415.90;1736265;82;21178;-77
2021/08/07 07:59:41;;;;;;;7.87;6.30;;;;;;;27.70;43.54;97424.33;1736176;82;20997;-76
2021/08/07 08:02:07;;;;;;;1.80;1.25;;;;;;;27.55;45.07;97431.92;1736341;82;21579;-76
2021/08/07 08:04:33;;;;;;;2.40;1.17;;;;;;;27.84;44.71;97431.77;1736197;82;21469;-77
2021/08/07 08:07:00;;;;;;;1.62;1.10;;;;;;;28.10;44.51;97444.31;1736314;82;20871;-80
2021/08/07 08:09:27;;;;;;;1.07;0.80;;;;;;;28.37;42.30;97439.77;1736408;82;21335;-80
2021/08/07 08:11:53;;;;;;;3.17;0.80;;;;;;;28.55;44.27;97442.98;1736403;81;20954;-77
2021/08/07 08:14:19;;;;;;;1.80;1.10;;;;;;;29.16;39.91;97443.16;1742581;81;20961;-77
2021/08/07 08:16:46;;;;;;;3.17;1.10;;;;;;;29.31;39.83;97451.55;1742683;81;20858;-81
2021/08/07 08:19:14;;;;;;;4.40;1.00;;;;;;;29.31;39.84;97453.52;1736153;82;20966;-77
2021/08/07 08:21:39;;;;;;;1.47;1.10;;;;;;;29.56;41.13;97449.84;1736604;82;21239;-77
2021/08/07 08:24:05;;;;;;;2.80;1.32;;;;;;;30.15;39.13;97445.83;1736145;82;20910;-80
2021/08/07 08:26:32;;;;;;;1.70;1.05;;;;;;;30.29;37.23;97451.98;1736290;81;20898;-81
2021/08/07 08:28:58;;;;;;;1.85;1.10;;;;;;;30.07;37.81;97447.91;1715410;82;21034;-76
2021/08/07 08:31:24;;;;;;;1.57;1.17;;;;;;;29.86;35.62;97449.03;1736593;81;20878;-77
2021/08/07 08:33:50;;;;;;;2.17;1.22;;;;;;;30.36;38.60;97452.48;1736231;81;21982;-81
2021/08/07 08:36:15;;;;;;;2.05;1.10;;;;;;;30.81;37.08;97450.11;1736354;82;20815;-77
2021/08/07 08:38:41;;;;;;;3.35;1.25;;;;;;;31.08;37.75;97449.20;1736253;81;20886;-76
2021/08/07 08:41:07;;;;;;;4.45;1.75;;;;;;;30.76;38.27;97451.98;1715571;82;22161;-77
2021/08/07 08:43:33;;;;;;;2.60;1.85;;;;;;;29.99;37.06;97451.41;1736561;82;20863;-81
2021/08/07 08:45:59;;;;;;;3.08;1.87;;;;;;;29.75;39.03;97451.98;1736580;82;21131;-81
2021/08/07 08:48:25;;;;;;;2.47;1.98;;;;;;;30.48;38.45;97454.66;1736217;82;20874;-77
2021/08/07 08:50:52;;;;;;;1.17;1.00;;;;;;;31.25;38.54;97444.50;1736526;82;20907;-81
2021/08/07 08:53:18;;;;;;;2.72;1.60;;;;;;;32.03;37.02;97440.62;1736391;82;20954;-81
2021/08/07 08:55:44;;;;;;;2.17;1.62;;;;;;;32.75;34.98;97439.05;1736580;82;20904;-82
2021/08/07 08:58:10;;;;;;;2.00;1.10;;;;;;;33.18;33.25;97444.30;1736207;82;21985;-82
2021/08/07 09:00:36;;;;;;;2.30;1.15;;;;;;;33.31;33.20;97450.73;1736476;81;20871;-77
2021/08/07 09:03:02;;;;;;;6.80;1.22;;;;;;;33.33;31.68;97448.91;1736582;82;20954;-78
2021/08/07 09:05:28;;;;;;;1.40;1.00;;;;;;;33.22;31.16;97451.99;1736281;82;20867;-77
2021/08/07 09:07:54;;;;;;;3.25;0.95;;;;;;;33.57;31.12;97449.41;1736303;82;20910;-82
2021/08/07 09:10:23;;;;;;;1.00;0.90;;;;;;;34.44;29.00;97458.97;1736314;82;21819;-81
2021/08/07 09:12:58;;;;;;;3.70;1.35;;;;;;;34.23;28.23;97444.98;1736312;82;21050;-82
2021/08/07 09:15:40;;;;;;;3.80;1.30;;;;;;;34.50;27.38;97455.14;1736261;82;21335;-78
2021/08/07 09:18:14;;;;;;;3.05;1.65;;;;;;;34.25;27.42;97450.14;1736201;82;20994;-76
2021/08/07 09:20:42;;;;;;;2.62;1.10;;;;;;;33.87;28.23;97450.92;1736583;82;20942;-80
2021/08/07 09:23:08;;;;;;;3.22;1.30;;;;;;;34.28;28.79;97454.27;1736291;82;22029;-81
2021/08/07 09:25:38;;;;;;;2.02;0.80;;;;;;;34.89;27.43;97452.23;1736119;82;20980;-77
2021/08/07 09:28:05;;;;;;;2.05;1.70;;;;;;;35.08;28.00;97458.83;1736327;81;20908;-81
2021/08/07 09:30:36;;;;;;;2.17;1.27;;;;;;;36.17;24.80;97457.33;1736299;82;20998;-77
2021/08/07 09:33:10;;;;;;;2.65;1.62;;;;;;;35.67;24.96;97452.22;1736387;81;21023;-81
2021/08/07 09:35:44;;;;;;;2.95;1.20;;;;;;;35.24;26.34;97450.20;1736286;82;21291;-81
2021/08/07 09:38:22;;;;;;;1.82;1.10;;;;;;;35.09;25.37;97449.13;1736107;81;21061;-81
2021/08/07 09:41:03;;;;;;;6.62;1.30;;;;;;;35.36;25.59;97455.58;1736420;82;20951;-76
2021/08/07 09:43:42;;;;;;;2.00;1.12;;;;;;;35.64;24.44;97454.56;1736273;82;20986;-81
2021/08/07 09:46:12;;;;;;;1.30;0.93;;;;;;;35.64;25.00;97446.70;1730812;82;20991;-76
2021/08/07 09:48:47;;;;;;;1.45;0.90;;;;;;;35.93;24.36;97456.29;1736160;82;21757;-82
2021/08/07 09:51:36;;;;;;;4.37;1.00;;;;;;;35.19;25.15;97452.17;1736397;82;20974;-82
2021/08/07 09:54:15;;;;;;;8.25;7.50;;;;;;;35.29;26.15;97441.14;1736106;82;20990;-80
2021/08/07 09:56:55;;;;;;;1.45;1.07;;;;;;;36.06;25.20;97449.91;1736560;82;21402;-83
2021/08/07 09:59:25;;;;;;;3.12;1.60;;;;;;;36.68;24.24;97440.72;1736008;82;20962;-82
2021/08/07 10:01:53;;;;;;;1.60;1.30;;;;;;;37.03;21.80;97437.63;1735402;82;21043;-82
2021/08/07 10:04:20;;;;;;;4.00;0.80;;;;;;;36.11;23.63;97444.46;1736098;82;21037;-82
2021/08/07 10:06:48;;;;;;;1.62;1.00;;;;;;;36.64;23.23;97442.89;1736744;82;26365;-82
2021/08/07 10:09:14;;;;;;;2.08;1.12;;;;;;;36.71;24.10;97442.59;1736093;82;21002;-76
2021/08/07 10:12:01;;;;;;;2.77;0.90;;;;;;;36.47;24.58;97438.79;1736563;81;21010;-81
2021/08/07 10:14:27;;;;;;;1.80;1.25;;;;;;;37.18;23.47;97440.61;1735255;81;21334;-82
2021/08/07 10:16:53;;;;;;;1.40;1.20;;;;;;;37.62;23.16;97441.66;1728303;82;20851;-82
2021/08/07 10:19:20;;;;;;;2.37;1.00;;;;;;;38.19;21.89;97441.77;1728378;82;20958;-77
2021/08/07 10:21:49;;;;;;;1.65;0.90;;;;;;;38.31;21.29;97440.17;1728248;83;21387;-77
2021/08/07 10:24:16;;;;;;;2.40;1.32;;;;;;;38.43;19.94;97433.34;1727872;83;21317;-82
2021/08/07 10:26:45;;;;;;;1.87;1.40;;;;;;;37.85;21.77;97438.77;1728235;83;21105;-77
2021/08/07 10:29:12;;;;;;;1.42;1.02;;;;;;;37.89;21.81;97438.77;1727838;82;21025;-82
2021/08/07 10:31:38;;;;;;;1.52;1.15;;;;;;;38.48;21.82;97440.55;1728700;82;21021;-82
2021/08/07 10:34:05;;;;;;;1.67;1.10;;;;;;;38.68;20.33;97442.80;1728349;82;20983;-76
2021/08/07 10:36:35;;;;;;;2.12;1.47;;;;;;;37.50;21.43;97434.28;1728509;83;20982;-77
2021/08/07 10:39:06;;;;;;;3.65;1.07;;;;;;;37.50;21.43;97434.28;1731631;82;21258;-81
2021/08/07 10:41:32;;;;;;;1.92;0.90;;;;;;;34.56;24.84;97445.52;1709159;82;20978;-75
2021/08/07 10:44:00;;;;;;;3.35;1.10;;;;;;;32.56;27.19;97442.16;1727937;83;21018;-75
2021/08/07 10:46:26;;;;;;;4.78;1.70;;;;;;;33.31;26.78;97445.11;1728420;83;21006;-81
2021/08/07 10:48:52;;;;;;;3.77;1.50;;;;;;;34.68;25.99;97442.49;1727993;83;21014;-75
2021/08/07 10:51:30;;;;;;;4.70;1.50;;;;;;;36.47;23.63;97445.84;1732360;82;21979;-76
2021/08/07 10:54:15;;;;;;;2.90;1.40;;;;;;;37.25;23.03;97434.61;1727997;82;21328;-77
2021/08/07 10:56:42;;;;;;;1.60;1.02;;;;;;;36.94;21.66;97424.92;1728537;82;21031;-81
2021/08/07 10:59:19;;;;;;;3.25;1.52;;;;;;;37.28;21.64;97436.52;1728013;82;21042;-81
2021/08/07 11:01:49;;;;;;;2.77;1.57;;;;;;;36.09;24.07;97434.91;1728510;83;20946;-77
2021/08/07 11:04:27;;;;;;;2.00;1.40;;;;;;;34.97;25.14;97441.70;1720932;83;21361;-80
2021/08/07 11:07:00;;;;;;;3.27;1.55;;;;;;;33.07;26.08;97433.97;1728218;82;20963;-81
2021/08/07 11:09:39;;;;;;;3.42;1.60;;;;;;;32.35;27.77;97429.45;1728125;83;20915;-76
2021/08/07 11:12:15;;;;;;;3.45;1.55;;;;;;;34.78;25.40;97432.30;1728304;83;20951;-76
2021/08/07 11:14:56;;;;;;;2.10;1.32;;;;;;;35.09;25.61;97432.25;1728294;82;21435;-82
2021/08/07 11:17:27;;;;;;;3.58;1.62;;;;;;;32.55;29.04;97425.13;1733903;82;21258;-76
2021/08/07 11:20:04;;;;;;;1.65;1.20;;;;;;;33.78;28.33;97419.28;1731158;81;20955;-82
2021/08/07 11:22:42;;;;;;;4.03;1.00;;;;;;;32.67;29.44;97428.63;1728535;82;21391;-83
2021/08/07 11:25:14;;;;;;;2.33;1.02;;;;;;;32.31;28.78;97426.58;1728194;82;20923;-81
2021/08/07 11:27:53;;;;;;;1.50;1.15;;;;;;;33.55;28.06;97427.40;1728195;83;20974;-76
2021/08/07 11:30:26;;;;;;;3.72;1.52;;;;;;;32.12;29.01;97424.77;1728073;82;21126;-80
2021/08/07 11:33:06;;;;;;;2.37;1.42;;;;;;;31.07;30.00;97433.03;1728115;83;21014;-76
2021/08/07 11:35:49;;;;;;;5.22;1.92;;;;;;;31.50;30.20;97432.78;1720563;83;20959;-77